createdAt,value
2018-03-23T00:00:37.496Z,0.26
2018-03-23T00:03:05.757Z,0.27
2018-03-23T00:05:34.794Z,0.33
2018-03-23T00:08:03.044Z,0.32
2018-03-23T00:10:31.317Z,0.49
2018-03-23T00:13:00.324Z,0.42
2018-03-23T00:15:28.593Z,0.50
2018-03-23T00:17:57.607Z,0.41
2018-03-23T00:20:25.883Z,0.54
2018-03-23T00:22:54.890Z,0.54
2018-03-23T00:25:23.144Z,0.57
2018-03-23T00:27:52.184Z,0.38
2018-03-23T00:30:20.450Z,0.24
2018-03-23T00:32:48.718Z,0.28
2018-03-23T00:35:17.744Z,0.42
2018-03-23T00:37:45.995Z,0.49
2018-03-23T00:40:15.041Z,0.45
2018-03-23T00:42:43.296Z,0.43
2018-03-23T00:45:11.553Z,0.06
2018-03-23T00:47:40.587Z,-0.01
2018-03-23T00:50:08.832Z,0.02
2018-03-23T00:52:37.092Z,0.01
2018-03-23T00:55:05.360Z,0.09
2018-03-23T00:57:33.604Z,0.15
2018-03-23T01:00:01.867Z,0.21
2018-03-23T01:02:30.133Z,0.20
2018-03-23T01:04:58.409Z,0.35
2018-03-23T01:07:27.430Z,0.62
2018-03-23T01:09:55.692Z,0.44
2018-03-23T01:12:24.739Z,0.52
2018-03-23T01:14:52.969Z,0.45
2018-03-23T01:17:22.010Z,0.53
2018-03-23T01:19:50.265Z,0.49
2018-03-23T01:22:18.518Z,0.32
2018-03-23T01:24:47.549Z,0.32
2018-03-23T01:27:15.796Z,0.53
2018-03-23T01:29:44.921Z,0.61
2018-03-23T01:32:13.187Z,0.43
2018-03-23T01:34:42.208Z,0.48
2018-03-23T01:37:10.460Z,0.60
2018-03-23T01:39:39.476Z,0.60
2018-03-23T01:42:07.741Z,0.65
2018-03-23T01:44:36.757Z,0.63
2018-03-23T01:47:05.167Z,0.63
2018-03-23T01:49:33.424Z,0.38
2018-03-23T01:52:01.673Z,0.52
2018-03-23T01:54:30.698Z,0.55
2018-03-23T01:56:58.952Z,0.52
2018-03-23T01:59:27.974Z,0.53
2018-03-23T02:01:56.229Z,0.65
2018-03-23T02:04:27.496Z,0.59
2018-03-23T02:06:55.740Z,0.66
2018-03-23T02:09:23.997Z,0.46
2018-03-23T02:11:52.264Z,0.59
2018-03-23T02:14:20.512Z,0.43
2018-03-23T02:16:48.764Z,0.74
2018-03-23T02:19:17.034Z,0.48
2018-03-23T02:21:45.285Z,0.34
2018-03-23T02:24:13.581Z,0.49
2018-03-23T02:26:41.832Z,0.37
2018-03-23T02:29:10.106Z,0.39
2018-03-23T02:31:38.362Z,0.50
2018-03-23T02:34:07.386Z,0.75
2018-03-23T02:36:35.634Z,0.78
2018-03-23T02:39:04.644Z,0.76
2018-03-23T02:41:33.669Z,0.76
2018-03-23T02:44:01.935Z,0.64
2018-03-23T02:46:30.185Z,0.56
2018-03-23T02:48:59.204Z,0.55
2018-03-23T02:51:28.329Z,0.70
2018-03-23T02:53:56.598Z,0.83
2018-03-23T02:56:24.840Z,0.65
2018-03-23T02:58:53.085Z,0.68
2018-03-23T03:01:21.359Z,0.59
2018-03-23T03:03:49.601Z,0.55
2018-03-23T03:06:18.617Z,0.49
2018-03-23T03:08:46.885Z,0.54
2018-03-23T03:11:15.899Z,0.54
2018-03-23T03:13:44.159Z,0.93
2018-03-23T03:16:13.181Z,0.77
2018-03-23T03:18:41.437Z,0.74
2018-03-23T03:21:10.465Z,0.76
2018-03-23T03:23:38.728Z,0.55
2018-03-23T03:26:06.960Z,0.89
2018-03-23T03:28:35.219Z,0.75
2018-03-23T03:31:03.488Z,0.90
2018-03-23T03:33:31.736Z,0.84
2018-03-23T03:35:59.988Z,0.79
2018-03-23T03:38:28.236Z,0.73
2018-03-23T03:40:56.500Z,0.72
2018-03-23T03:43:24.739Z,0.56
2018-03-23T03:45:53.752Z,0.60
2018-03-23T03:48:22.025Z,0.74
2018-03-23T03:50:51.052Z,0.54
2018-03-23T03:53:19.311Z,0.63
2018-03-23T03:55:47.576Z,0.68
2018-03-23T03:58:16.589Z,0.55
2018-03-23T04:00:45.600Z,0.63
2018-03-23T04:03:14.004Z,0.52
2018-03-23T04:05:42.268Z,0.56
2018-03-23T04:08:10.975Z,0.60
2018-03-23T04:10:39.235Z,0.60
2018-03-23T04:13:08.741Z,0.69
2018-03-23T04:15:37.008Z,0.73
2018-03-23T04:18:06.026Z,0.65
2018-03-23T04:20:34.276Z,0.75
2018-03-23T04:23:03.309Z,0.52
2018-03-23T04:25:31.577Z,0.56
2018-03-23T04:27:59.836Z,0.53
2018-03-23T04:30:28.864Z,0.58
2018-03-23T04:32:57.115Z,0.57
2018-03-23T04:35:26.132Z,0.52
2018-03-23T04:37:54.396Z,0.58
2018-03-23T04:40:23.408Z,0.77
2018-03-23T04:42:51.667Z,0.68
2018-03-23T04:45:20.700Z,0.56
2018-03-23T04:47:48.949Z,0.90
2018-03-23T04:50:17.970Z,0.67
2018-03-23T04:52:46.275Z,1.01
2018-03-23T04:55:15.256Z,0.97
2018-03-23T04:57:43.516Z,1.02
2018-03-23T05:00:11.776Z,0.99
2018-03-23T05:02:40.789Z,0.98
2018-03-23T05:05:10.145Z,0.96
2018-03-23T05:07:38.404Z,0.92
2018-03-23T05:10:06.664Z,1.01
2018-03-23T05:12:34.939Z,1.07
2018-03-23T05:15:03.955Z,1.04
2018-03-23T05:17:32.188Z,1.00
2018-03-23T05:20:00.693Z,0.78
2018-03-23T05:22:29.708Z,0.76
2018-03-23T05:24:57.952Z,0.76
2018-03-23T05:27:26.218Z,0.69
2018-03-23T05:29:54.468Z,0.87
2018-03-23T05:32:22.720Z,0.96
2018-03-23T05:34:51.751Z,1.01
2018-03-23T05:37:19.996Z,1.08
2018-03-23T05:39:48.247Z,1.06
2018-03-23T05:42:16.506Z,1.11
